Time;durP1;ratioP1;P1;durP2;ratioP2;P2;SDS_P1;SDS_P2;PMS_P1;PMS_P2;Temp;Humidity;BMP_temperature;BMP_pressure;BME280_temperature;BME280_humidity;BME280_pressure;Samples;Min_cycle;Max_cycle;Signal;HPM_P1;HPM_P2
2024/04/19 00:02:22;;;;;;;;;;;;;;;;;;5496124;26;19952;-72
2024/04/19 00:04:48;;;;;;;;;;;;;;;;;;5528555;26;19995;-72
2024/04/19 00:07:14;;;;;;;;;;;;;;;;;;5527899;26;19927;-72
2024/04/19 00:09:40;;;;;;;;;;;;;;;;;;5528478;26;19935;-73
2024/04/19 00:12:06;;;;;;;;;;;;;;;;;;5528052;26;19927;-72
2024/04/19 00:14:33;;;;;;;;;;;;;;;;;;5527624;26;19927;-73
2024/04/19 00:16:59;;;;;;;;;;;;;;;;;;5528029;26;19927;-72
2024/04/19 00:19:25;;;;;;;;;;;;;;;;;;5495243;26;19927;-72
2024/04/19 00:21:51;;;;;;;;;;;;;;;;;;5527667;26;19928;-72
2024/04/19 00:24:17;;;;;;;;;;;;;;;;;;5527898;26;19934;-72
2024/04/19 00:26:43;;;;;;;;;;;;;;;;;;5495306;26;19934;-72
2024/04/19 00:29:09;;;;;;;;;;;;;;;;;;5494543;26;19928;-71
2024/04/19 00:31:35;;;;;;;;;;;;;;;;;;5495076;26;19955;-72
2024/04/19 00:34:01;;;;;;;;;;;;;;;;;;5527380;26;19934;-72
2024/04/19 00:36:27;;;;;;;;;;;;;;;;;;5527677;26;20356;-72
2024/04/19 00:38:54;;;;;;;;;;;;;;;;;;5527496;26;19955;-73
2024/04/19 00:41:20;;;;;;;;;;;;;;;;;;5527148;26;20428;-72
2024/04/19 00:43:46;;;;;;;;;;;;;;;;;;5527464;26;19944;-72
2024/04/19 00:46:12;;;;;;;;;;;;;;;;;;5527549;26;19934;-72
2024/04/19 00:48:40;;;;;;;;;;;;;;;;;;5527031;26;20359;-72
2024/04/19 00:51:06;;;;;;;;;;;;;;;;;;5527341;26;19942;-72
2024/04/19 00:53:32;;;;;;;;;;;;;;;;;;5494916;26;19931;-73
2024/04/19 00:55:58;;;;;;;;;;;;;;;;;;5526872;26;20329;-72
2024/04/19 00:58:24;;;;;;;;;;;;;;;;;;5527332;26;20009;-72
2024/04/19 01:00:50;;;;;;;;;;;;;;;;;;5494779;26;19960;-72
2024/04/19 01:03:16;;;;;;;;;;;;;;;;;;5526716;26;20364;-72
2024/04/19 01:05:42;;;;;;;;;;;;;;;;;;5527272;26;19935;-72
2024/04/19 01:08:08;;;;;;;;;;;;;;;;;;5527033;26;19934;-72
2024/04/19 01:10:34;;;;;;;;;;;;;;;;;;5526600;26;19927;-72
2024/04/19 01:13:00;;;;;;;;;;;;;;;;;;5526873;26;19932;-72
2024/04/19 01:15:26;;;;;;;;;;;;;;;;;;5527343;26;20352;-72
2024/04/19 01:17:52;;;;;;;;;;;;;;;;;;5526855;26;19928;-72
2024/04/19 01:20:18;;;;;;;;;;;;;;;;;;5527358;26;20370;-72
2024/04/19 01:22:44;;;;;;;;;;;;;;;;;;5527214;26;20261;-72
2024/04/19 01:25:10;;;;;;;;;;;;;;;;;;5526951;26;20036;-72
2024/04/19 01:27:36;;;;;;;;;;;;;;;;;;5527042;26;19928;-72
2024/04/19 01:30:02;;;;;;;;;;;;;;;;;;5527358;26;19991;-72
2024/04/19 01:32:28;;;;;;;;;;;;;;;;;;5493980;26;19934;-72
2024/04/19 01:34:54;;;;;;;;;;;;;;;;;;5494395;26;19931;-72
2024/04/19 01:37:20;;;;;;;;;;;;;;;;;;5526585;26;19934;-73
2024/04/19 01:39:46;;;;;;;;;;;;;;;;;;5526894;26;19928;-72
2024/04/19 01:42:12;;;;;;;;;;;;;;;;;;5526863;26;19928;-73
2024/04/19 01:44:38;;;;;;;;;;;;;;;;;;5493747;26;19956;-72
2024/04/19 01:47:04;;;;;;;;;;;;;;;;;;5526790;26;19928;-72
2024/04/19 01:49:30;;;;;;;;;;;;;;;;;;5526688;26;19999;-72
2024/04/19 01:51:57;;;;;;;;;;;;;;;;;;5493565;26;19927;-73
2024/04/19 01:54:23;;;;;;;;;;;;;;;;;;5526544;26;19927;-72
2024/04/19 01:56:52;;;;;;;;;;;;;;;;;;5526813;26;20368;-72
2024/04/19 01:59:18;;;;;;;;;;;;;;;;;;5525986;26;19965;-72
2024/04/19 02:01:44;;;;;;;;;;;;;;;;;;5526674;26;19931;-72
2024/04/19 02:04:10;;;;;;;;;;;;;;;;;;5526666;26;20000;-72
2024/04/19 02:06:36;;;;;;;;;;;;;;;;;;5493279;26;19927;-72
2024/04/19 02:09:02;;;;;;;;;;;;;;;;;;5526540;26;19995;-72
2024/04/19 02:11:28;;;;;;;;;;;;;;;;;;5526445;26;19935;-72
2024/04/19 02:13:54;;;;;;;;;;;;;;;;;;5525756;26;19934;-72
2024/04/19 02:16:20;;;;;;;;;;;;;;;;;;5526336;26;19927;-72
2024/04/19 02:18:46;;;;;;;;;;;;;;;;;;5526186;26;19928;-72
2024/04/19 02:21:12;;;;;;;;;;;;;;;;;;5528546;26;19928;-72
2024/04/19 02:23:38;;;;;;;;;;;;;;;;;;5530044;26;19995;-72
2024/04/19 02:26:04;;;;;;;;;;;;;;;;;;5529986;26;20300;-72
2024/04/19 02:31:14;;;;;;;;;;;;;;;;;;5530511;26;19931;-72
2024/04/19 02:33:40;;;;;;;;;;;;;;;;;;5529377;26;19928;-71
2024/04/19 02:36:07;;;;;;;;;;;;;;;;;;5497210;26;19931;-71
2024/04/19 02:38:33;;;;;;;;;;;;;;;;;;5529629;26;20252;-72
2024/04/19 02:40:59;;;;;;;;;;;;;;;;;;5529520;26;19952;-72
2024/04/19 02:43:25;;;;;;;;;;;;;;;;;;5529717;26;20375;-72
2024/04/19 02:45:51;;;;;;;;;;;;;;;;;;5529806;26;20256;-72
2024/04/19 02:48:17;;;;;;;;;;;;;;;;;;5496636;26;19995;-73
2024/04/19 02:50:43;;;;;;;;;;;;;;;;;;5529570;26;19927;-72
2024/04/19 02:53:08;;;;;;;;;;;;;;;;;;5529613;26;19927;-73
2024/04/19 02:55:34;;;;;;;;;;;;;;;;;;5529111;26;19933;-72
2024/04/19 02:58:00;;;;;;;;;;;;;;;;;;5496724;26;19928;-72
2024/04/19 03:00:26;;;;;;;;;;;;;;;;;;5529409;26;19935;-72
2024/04/19 03:02:52;;;;;;;;;;;;;;;;;;5529058;26;20008;-72
2024/04/19 03:05:18;;;;;;;;;;;;;;;;;;5496757;26;19934;-72
2024/04/19 03:07:44;;;;;;;;;;;;;;;;;;5529268;26;19935;-72
2024/04/19 03:10:10;;;;;;;;;;;;;;;;;;5528947;26;19936;-72
2024/04/19 03:12:36;;;;;;;;;;;;;;;;;;5529086;26;19991;-72
2024/04/19 03:15:02;;;;;;;;;;;;;;;;;;5496661;26;19927;-72
2024/04/19 03:17:28;;;;;;;;;;;;;;;;;;5496184;26;19927;-72
2024/04/19 03:19:54;;;;;;;;;;;;;;;;;;5529261;26;20360;-72
2024/04/19 03:22:20;;;;;;;;;;;;;;;;;;5529232;26;19928;-72
2024/04/19 03:24:46;;;;;;;;;;;;;;;;;;5528724;26;20362;-72
2024/04/19 03:27:12;;;;;;;;;;;;;;;;;;5529042;26;19952;-72
2024/04/19 03:29:38;;;;;;;;;;;;;;;;;;5529150;26;20367;-72
2024/04/19 03:32:04;;;;;;;;;;;;;;;;;;5495824;26;20206;-72
2024/04/19 03:34:31;;;;;;;;;;;;;;;;;;5528929;26;19927;-72
2024/04/19 03:36:57;;;;;;;;;;;;;;;;;;5528553;26;19927;-73
2024/04/19 03:39:23;;;;;;;;;;;;;;;;;;5496405;26;19935;-72
2024/04/19 03:41:51;;;;;;;;;;;;;;;;;;5529081;26;19935;-73
2024/04/19 03:47:01;;;;;;;;;;;;;;;;;;5529382;26;20247;-73
2024/04/19 03:49:27;;;;;;;;;;;;;;;;;;5528702;26;19927;-72
2024/04/19 03:51:56;;;;;;;;;;;;;;;;;;5528495;26;20419;-72
2024/04/19 03:54:22;;;;;;;;;;;;;;;;;;5496217;26;19951;-72
2024/04/19 03:56:48;;;;;;;;;;;;;;;;;;5496207;26;19934;-73
2024/04/19 03:59:13;;;;;;;;;;;;;;;;;;5528189;26;19935;-72
2024/04/19 04:01:39;;;;;;;;;;;;;;;;;;5528789;26;19996;-72
2024/04/19 04:04:07;;;;;;;;;;;;;;;;;;5496399;26;19931;-71
2024/04/19 04:06:33;;;;;;;;;;;;;;;;;;5528365;26;19939;-72
2024/04/19 04:08:59;;;;;;;;;;;;;;;;;;5528710;26;19939;-71
2024/04/19 04:11:25;;;;;;;;;;;;;;;;;;5528600;26;19928;-72
2024/04/19 04:13:51;;;;;;;;;;;;;;;;;;5527706;26;19935;-72
2024/04/19 04:16:17;;;;;;;;;;;;;;;;;;5528353;26;20343;-72
2024/04/19 04:18:43;;;;;;;;;;;;;;;;;;5495671;26;19935;-72
2024/04/19 04:21:09;;;;;;;;;;;;;;;;;;5527854;26;19935;-72
2024/04/19 04:23:35;;;;;;;;;;;;;;;;;;5528341;26;19931;-72
2024/04/19 04:26:01;;;;;;;;;;;;;;;;;;5528537;26;19934;-71
2024/04/19 04:28:27;;;;;;;;;;;;;;;;;;5527675;26;19934;-72
2024/04/19 04:30:53;;;;;;;;;;;;;;;;;;5495494;26;19935;-72
2024/04/19 04:33:19;;;;;;;;;;;;;;;;;;5495234;26;20344;-72
2024/04/19 04:35:45;;;;;;;;;;;;;;;;;;5527991;26;19928;-72
2024/04/19 04:38:11;;;;;;;;;;;;;;;;;;5528112;26;20389;-72
2024/04/19 04:40:37;;;;;;;;;;;;;;;;;;5527464;26;20259;-72
2024/04/19 04:43:03;;;;;;;;;;;;;;;;;;5527268;26;19934;-72
2024/04/19 04:45:29;;;;;;;;;;;;;;;;;;5528076;26;19928;-71
2024/04/19 04:47:55;;;;;;;;;;;;;;;;;;5527331;26;19995;-72
2024/04/19 04:50:22;;;;;;;;;;;;;;;;;;5527749;26;19927;-72
2024/04/19 04:52:48;;;;;;;;;;;;;;;;;;5527627;26;19935;-72
2024/04/19 04:55:14;;;;;;;;;;;;;;;;;;5527306;26;19927;-72
2024/04/19 04:57:40;;;;;;;;;;;;;;;;;;5527646;26;19931;-73
2024/04/19 05:00:07;;;;;;;;;;;;;;;;;;5495220;26;20432;-72
2024/04/19 05:02:33;;;;;;;;;;;;;;;;;;5527153;26;19928;-72
2024/04/19 05:04:59;;;;;;;;;;;;;;;;;;5527824;26;19938;-72
2024/04/19 05:07:25;;;;;;;;;;;;;;;;;;5527583;26;19928;-73
2024/04/19 05:09:51;;;;;;;;;;;;;;;;;;5527037;26;20367;-73
2024/04/19 05:12:17;;;;;;;;;;;;;;;;;;5494706;26;19927;-73
2024/04/19 05:14:43;;;;;;;;;;;;;;;;;;5494836;26;19995;-73
2024/04/19 05:17:11;;;;;;;;;;;;;;;;;;5523194;26;19927;-66
2024/04/19 05:19:37;;;;;;;;;;;;;;;;;;5523491;26;19967;-66
2024/04/19 05:22:03;;;;;;;;;;;;;;;;;;5525853;26;19927;-68
2024/04/19 05:24:29;;;;;;;;;;;;;;;;;;5522794;26;19927;-66
2024/04/19 05:26:56;;;;;;;;;;;;;;;;;;5523385;26;19928;-71
2024/04/19 05:29:24;;;;;;;;;;;;;;;;;;5500387;25;20262;-68
2024/04/19 05:31:50;;;;;;;;;;;;;;;;;;5476832;26;19927;-69
2024/04/19 05:34:16;;;;;;;;;;;;;;;;;;5521392;26;19934;-70
2024/04/19 05:36:43;;;;;;;;;;;;;;;;;;5514826;25;19927;-70
2024/04/19 05:39:09;;;;;;;;;;;;;;;;;;5486808;26;19927;-70
2024/04/19 05:41:35;;;;;;;;;;;;;;;;;;5520021;25;20282;-71
2024/04/19 05:44:01;;;;;;;;;;;;;;;;;;5518749;25;19939;-69
2024/04/19 05:46:27;;;;;;;;;;;;;;;;;;5509837;26;19928;-69
2024/04/19 05:48:53;;;;;;;;;;;;;;;;;;5450285;26;19927;-72
2024/04/19 05:51:19;;;;;;;;;;;;;;;;;;5505203;26;19934;-71
2024/04/19 05:53:45;;;;;;;;;;;;;;;;;;5522047;26;19928;-73
2024/04/19 05:56:14;;;;;;;;;;;;;;;;;;5522661;26;19933;-74
2024/04/19 05:58:40;;;;;;;;;;;;;;;;;;5524494;26;19934;-75
2024/04/19 06:01:06;;;;;;;;;;;;;;;;;;5525508;26;19951;-74
2024/04/19 06:03:32;;;;;;;;;;;;;;;;;;5527365;26;19935;-73
2024/04/19 06:05:58;;;;;;;;;;;;;;;;;;5527118;26;19943;-72
2024/04/19 06:08:24;;;;;;;;;;;;;;;;;;5527930;26;19928;-72
2024/04/19 06:10:50;;;;;;;;;;;;;;;;;;5528026;26;19938;-71
2024/04/19 06:13:16;;;;;;;;;;;;;;;;;;5487577;26;19927;-71
2024/04/19 06:15:45;;;;;;;;;;;;;;;;;;5502033;26;19935;-71
2024/04/19 06:18:11;;;;;;;;;;;;;;;;;;5510504;26;20057;-72
2024/04/19 06:20:39;;;;;;;;;;;;;;;;;;5461204;25;19992;-72
2024/04/19 06:23:05;;;;;;;;;;;;;;;;;;5476934;26;19936;-73
2024/04/19 06:25:31;;;;;;;;;;;;;;;;;;5520205;26;19935;-72
2024/04/19 06:27:57;;;;;;;;;;;;;;;;;;5523173;26;19935;-72
2024/04/19 06:30:23;;;;;;;;;;;;;;;;;;5491956;26;19928;-71
2024/04/19 06:32:49;;;;;;;;;;;;;;;;;;5522261;26;19934;-70
2024/04/19 06:35:18;;;;;;;;;;;;;;;;;;5520035;25;19935;-73
2024/04/19 06:37:44;;;;;;;;;;;;;;;;;;5506160;26;19927;-78
2024/04/19 06:40:10;;;;;;;;;;;;;;;;;;5486183;26;20349;-78
2024/04/19 06:42:36;;;;;;;;;;;;;;;;;;5491022;26;20001;-77
2024/04/19 06:45:02;;;;;;;;;;;;;;;;;;5506488;26;19928;-72
2024/04/19 06:47:28;;;;;;;;;;;;;;;;;;5506590;25;20374;-72
2024/04/19 06:49:54;;;;;;;;;;;;;;;;;;5484408;26;19927;-72
2024/04/19 06:52:19;;;;;;;;;;;;;;;;;;5512372;26;19939;-72
2024/04/19 06:54:45;;;;;;;;;;;;;;;;;;5526729;26;20054;-74
2024/04/19 06:57:11;;;;;;;;;;;;;;;;;;5476786;26;19934;-78
2024/04/19 06:59:37;;;;;;;;;;;;;;;;;;5487474;26;19928;-73
2024/04/19 07:02:03;;;;;;;;;;;;;;;;;;5522509;26;19927;-73
2024/04/19 07:04:29;;;;;;;;;;;;;;;;;;5524073;26;20022;-72
2024/04/19 07:06:55;;;;;;;;;;;;;;;;;;5485824;26;19927;-71
2024/04/19 07:09:22;;;;;;;;;;;;;;;;;;5507262;26;20646;-71
2024/04/19 07:11:48;;;;;;;;;;;;;;;;;;5455797;26;19928;-76
2024/04/19 07:14:14;;;;;;;;;;;;;;;;;;5520013;26;19934;-73
2024/04/19 07:16:40;;;;;;;;;;;;;;;;;;5470491;26;19935;-76
2024/04/19 07:19:06;;;;;;;;;;;;;;;;;;5485007;26;19942;-74
2024/04/19 07:21:32;;;;;;;;;;;;;;;;;;5482581;26;19927;-75
2024/04/19 07:23:58;;;;;;;;;;;;;;;;;;5492790;26;19928;-73
2024/04/19 07:26:23;;;;;;;;;;;;;;;;;;5471388;26;19952;-74
2024/04/19 07:28:49;;;;;;;;;;;;;;;;;;5458637;25;19991;-72
2024/04/19 07:31:15;;;;;;;;;;;;;;;;;;5470776;26;20345;-75
2024/04/19 07:33:42;;;;;;;;;;;;;;;;;;5471294;26;19996;-71
2024/04/19 07:36:08;;;;;;;;;;;;;;;;;;5514360;26;20316;-75
2024/04/19 07:38:35;;;;;;;;;;;;;;;;;;5521118;25;19935;-76
2024/04/19 07:41:01;;;;;;;;;;;;;;;;;;5488108;26;19939;-73
2024/04/19 07:43:27;;;;;;;;;;;;;;;;;;5518986;25;20449;-68
2024/04/19 07:45:53;;;;;;;;;;;;;;;;;;5487186;26;19939;-70
2024/04/19 07:48:19;;;;;;;;;;;;;;;;;;5495746;25;19928;-71
2024/04/19 07:50:45;;;;;;;;;;;;;;;;;;5487133;26;19998;-74
2024/04/19 07:53:11;;;;;;;;;;;;;;;;;;5517936;26;19934;-73
2024/04/19 07:55:38;;;;;;;;;;;;;;;;;;5486615;26;20252;-75
2024/04/19 07:58:04;;;;;;;;;;;;;;;;;;5503449;26;19975;-74
2024/04/19 08:00:30;;;;;;;;;;;;;;;;;;5465505;26;19932;-71
2024/04/19 08:02:56;;;;;;;;;;;;;;;;;;5507455;26;19932;-71
2024/04/19 08:05:23;;;;;;;;;;;;;;;;;;5504481;26;19932;-72
2024/04/19 08:07:49;;;;;;;;;;;;;;;;;;5491517;26;19928;-73
2024/04/19 08:10:16;;;;;;;;;;;;;;;;;;5523261;26;20384;-72
2024/04/19 08:12:42;;;;;;;;;;;;;;;;;;5519719;25;19933;-73
2024/04/19 08:15:08;;;;;;;;;;;;;;;;;;5521308;26;19935;-74
2024/04/19 08:17:34;;;;;;;;;;;;;;;;;;5484763;26;19928;-74
2024/04/19 08:20:00;;;;;;;;;;;;;;;;;;5522191;26;19936;-69
2024/04/19 08:22:26;;;;;;;;;;;;;;;;;;5490219;26;19934;-68
2024/04/19 08:24:52;;;;;;;;;;;;;;;;;;5521996;26;19976;-67
2024/04/19 08:27:18;;;;;;;;;;;;;;;;;;5523040;26;20255;-68
2024/04/19 08:29:44;;;;;;;;;;;;;;;;;;5525907;26;19928;-68
2024/04/19 08:32:10;;;;;;;;;;;;;;;;;;5493480;26;19935;-68
2024/04/19 08:34:36;;;;;;;;;;;;;;;;;;5522786;26;19935;-69
2024/04/19 08:37:02;;;;;;;;;;;;;;;;;;5525769;26;20248;-71
2024/04/19 08:39:28;;;;;;;;;;;;;;;;;;5525846;26;19996;-71
2024/04/19 08:41:54;;;;;;;;;;;;;;;;;;5525343;26;19929;-71
2024/04/19 08:44:21;;;;;;;;;;;;;;;;;;5489478;26;19931;-69
2024/04/19 08:46:46;;;;;;;;;;;;;;;;;;5498710;26;19928;-72
2024/04/19 08:49:12;;;;;;;;;;;;;;;;;;5503078;25;19938;-71
2024/04/19 08:51:38;;;;;;;;;;;;;;;;;;5501095;26;19956;-74
2024/04/19 08:54:04;;;;;;;;;;;;;;;;;;5521402;25;19942;-70
2024/04/19 08:56:31;;;;;;;;;;;;;;;;;;5466542;26;19928;-71
2024/04/19 08:58:57;;;;;;;;;;;;;;;;;;5495619;26;19928;-68
2024/04/19 09:01:25;;;;;;;;;;;;;;;;;;5506989;26;19934;-69
2024/04/19 09:03:52;;;;;;;;;;;;;;;;;;5520922;26;19935;-70
2024/04/19 09:06:18;;;;;;;;;;;;;;;;;;5519977;26;19932;-71
2024/04/19 09:08:44;;;;;;;;;;;;;;;;;;5509813;26;19927;-69
2024/04/19 09:11:10;;;;;;;;;;;;;;;;;;5520675;26;19995;-72
2024/04/19 09:13:35;;;;;;;;;;;;;;;;;;5471949;26;19928;-69
2024/04/19 09:16:01;;;;;;;;;;;;;;;;;;5519176;26;20300;-73
2024/04/19 09:18:27;;;;;;;;;;;;;;;;;;5518631;26;19938;-70
2024/04/19 09:20:53;;;;;;;;;;;;;;;;;;5522712;26;19942;-69
2024/04/19 09:23:19;;;;;;;;;;;;;;;;;;5516865;25;19934;-69
2024/04/19 09:25:45;;;;;;;;;;;;;;;;;;5519609;26;19927;-72
2024/04/19 09:29:13;;;;;;;;;;;;;;;;;;5426557;26;19929;-74
2024/04/19 09:31:56;;;;;;;;;;;;;;;;;;5571416;25;20418;-75
2024/04/19 09:34:22;;;;;;;;;;;;;;;;;;5575747;25;19927;-74
2024/04/19 09:36:48;;;;;;;;;;;;;;;;;;5541512;25;19938;-74
2024/04/19 09:39:14;;;;;;;;;;;;;;;;;;5545281;25;19927;-76
2024/04/19 09:41:39;;;;;;;;;;;;;;;;;;5548100;25;19927;-73
2024/04/19 09:44:05;;;;;;;;;;;;;;;;;;5548537;25;19935;-73
2024/04/19 09:46:31;;;;;;;;;;;;;;;;;;5545534;25;19931;-73
2024/04/19 09:48:57;;;;;;;;;;;;;;;;;;5540943;25;19934;-73
2024/04/19 09:52:02;;;;;;;;;;;;;;;;;;5498565;25;19934;-71
2024/04/19 09:59:16;;;;;;;;;;;;;;;;;;5462329;26;19933;-73
2024/04/19 10:01:42;;;;;;;;;;;;;;;;;;5462461;26;19936;-73
2024/04/19 10:06:07;;;;;;;;;;;;;;;;;;5460330;26;19935;-74
2024/04/19 10:08:33;;;;;;;;;;;;;;;;;;5465438;26;19940;-75
2024/04/19 10:10:59;;;;;;;;;;;;;;;;;;5466348;26;19997;-75
2024/04/19 10:13:30;;;;;;;;;;;;;;;;;;5463889;26;19941;-75
2024/04/19 10:15:56;;;;;;;;;;;;;;;;;;5432502;26;19936;-74
2024/04/19 10:21:27;;;;;;;;;;;;;;;;;;5620339;25;19933;-73
2024/04/19 10:23:53;;;;;;;;;;;;;;;;;;5586824;25;19962;-72
2024/04/19 10:26:19;;;;;;;;;;;;;;;;;;5619557;25;20256;-74
2024/04/19 10:32:00;;;;;;;;;;;;;;;;;;5619122;25;19934;-74
2024/04/19 10:34:25;;;;;;;;;;;;;;;;;;5619841;25;19931;-74
2024/04/19 10:36:51;;;;;;;;;;;;;;;;;;5617748;25;19938;-74
2024/04/19 10:39:18;;;;;;;;;;;;;;;;;;5583807;25;19933;-75
2024/04/19 10:41:44;;;;;;;;;;;;;;;;;;5615690;25;19938;-73
2024/04/19 10:46:02;;;;;;;;;;;;;;;;;;5468153;26;20697;-73
2024/04/19 10:48:42;;;;;;;;;;;;;;;;;;5505865;25;20268;-73
2024/04/19 10:53:24;;;;;;;;;;;;;;;;;;5468667;26;19935;-72
2024/04/19 10:55:50;;;;;;;;;;;;;;;;;;5468256;26;19928;-73
2024/04/19 10:58:16;;;;;;;;;;;;;;;;;;5459935;26;19944;-75
2024/04/19 11:03:14;;;;;;;;;;;;;;;;;;5613538;25;20267;-75
2024/04/19 11:05:40;;;;;;;;;;;;;;;;;;5612009;25;19934;-73
2024/04/19 11:10:41;;;;;;;;;;;;;;;;;;5579738;25;20370;-74
2024/04/19 11:15:12;;;;;;;;;;;;;;;;;;5621101;25;20327;-74
2024/04/19 11:17:39;;;;;;;;;;;;;;;;;;5622026;25;20044;-75
2024/04/19 11:20:05;;;;;;;;;;;;;;;;;;5622107;25;19926;-74
2024/04/19 11:22:36;;;;;;;;;;;;;;;;;;5621771;25;19975;-74
2024/04/19 11:25:02;;;;;;;;;;;;;;;;;;5588370;25;19927;-74
2024/04/19 11:27:30;;;;;;;;;;;;;;;;;;5588085;25;19927;-73
2024/04/19 11:29:56;;;;;;;;;;;;;;;;;;5620339;25;19934;-73
2024/04/19 11:32:22;;;;;;;;;;;;;;;;;;5621830;25;20024;-74
2024/04/19 11:36:06;;;;;;;;;;;;;;;;;;5469940;26;19928;-74
2024/04/19 11:38:32;;;;;;;;;;;;;;;;;;5467232;26;20371;-74
2024/04/19 11:40:58;;;;;;;;;;;;;;;;;;5468859;26;19940;-74
2024/04/19 11:43:24;;;;;;;;;;;;;;;;;;5468679;26;19928;-75
2024/04/19 11:45:50;;;;;;;;;;;;;;;;;;5468869;26;19940;-74
2024/04/19 11:48:16;;;;;;;;;;;;;;;;;;5468785;26;19929;-74
2024/04/19 11:50:42;;;;;;;;;;;;;;;;;;5468738;26;19940;-74
2024/04/19 11:53:08;;;;;;;;;;;;;;;;;;5467342;26;19928;-74
2024/04/19 11:55:34;;;;;;;;;;;;;;;;;;5466717;26;19928;-74
2024/04/19 11:58:01;;;;;;;;;;;;;;;;;;5465305;26;20001;-74
2024/04/19 12:00:27;;;;;;;;;;;;;;;;;;5465943;26;19939;-74
2024/04/19 12:02:53;;;;;;;;;;;;;;;;;;5464609;26;19939;-74
2024/04/19 12:05:19;;;;;;;;;;;;;;;;;;5468009;26;19932;-74
2024/04/19 12:07:45;;;;;;;;;;;;;;;;;;5454636;26;19933;-75
2024/04/19 12:10:11;;;;;;;;;;;;;;;;;;5435917;26;19929;-75
2024/04/19 12:12:37;;;;;;;;;;;;;;;;;;5438259;26;19929;-75
2024/04/19 12:15:03;;;;;;;;;;;;;;;;;;5471922;26;19935;-74
2024/04/19 12:17:29;;;;;;;;;;;;;;;;;;5471660;26;19928;-74
2024/04/19 12:19:55;;;;;;;;;;;;;;;;;;5471989;26;19955;-75
2024/04/19 12:22:21;;;;;;;;;;;;;;;;;;5471889;26;19932;-74
2024/04/19 12:24:47;;;;;;;;;;;;;;;;;;5471083;26;19929;-74
2024/04/19 12:27:13;;;;;;;;;;;;;;;;;;5471464;26;19936;-74
2024/04/19 12:29:39;;;;;;;;;;;;;;;;;;5469658;26;19933;-72
2024/04/19 12:32:06;;;;;;;;;;;;;;;;;;5469240;26;19936;-73
2024/04/19 12:34:32;;;;;;;;;;;;;;;;;;5468240;26;20245;-73
2024/04/19 12:36:59;;;;;;;;;;;;;;;;;;5469810;26;19932;-75
2024/04/19 12:39:25;;;;;;;;;;;;;;;;;;5469726;26;20344;-75
2024/04/19 12:41:51;;;;;;;;;;;;;;;;;;5468242;26;19935;-76
2024/04/19 12:44:17;;;;;;;;;;;;;;;;;;5468501;26;19934;-75
2024/04/19 12:46:43;;;;;;;;;;;;;;;;;;5457113;26;19933;-75
2024/04/19 12:50:36;;;;;;;;;;;;;;;;;;5619565;25;19926;-76
2024/04/19 12:53:02;;;;;;;;;;;;;;;;;;5619015;25;19948;-75
2024/04/19 12:55:28;;;;;;;;;;;;;;;;;;5618437;25;19933;-75
2024/04/19 12:57:53;;;;;;;;;;;;;;;;;;5618160;25;20434;-75
2024/04/19 13:00:21;;;;;;;;;;;;;;;;;;5618071;25;20311;-75
2024/04/19 13:05:54;;;;;;;;;;;;;;;;;;5465746;26;19929;-75
2024/04/19 13:10:48;;;;;;;;;;;;;;;;;;5467380;26;19936;-75
2024/04/19 13:13:15;;;;;;;;;;;;;;;;;;5468794;26;19928;-75
2024/04/19 13:15:42;;;;;;;;;;;;;;;;;;5466457;26;19928;-75
2024/04/19 13:21:28;;;;;;;;;;;;;;;;;;5471819;26;19939;-75
2024/04/19 13:23:54;;;;;;;;;;;;;;;;;;5472891;26;19936;-75
2024/04/19 13:26:22;;;;;;;;;;;;;;;;;;5472748;26;19936;-75
2024/04/19 13:28:51;;;;;;;;;;;;;;;;;;5472286;26;19938;-74
2024/04/19 13:35:04;;;;;;;;;;;;;;;;;;5621867;25;19926;-74
2024/04/19 13:38:00;;;;;;;;;;;;;;;;;;5622318;25;19926;-74
2024/04/19 13:40:26;;;;;;;;;;;;;;;;;;5622278;25;19938;-75
2024/04/19 13:42:52;;;;;;;;;;;;;;;;;;5621876;25;20366;-75
2024/04/19 13:45:18;;;;;;;;;;;;;;;;;;5588629;25;20312;-74
2024/04/19 13:47:44;;;;;;;;;;;;;;;;;;5588531;25;19988;-74
2024/04/19 13:50:10;;;;;;;;;;;;;;;;;;5587796;25;19933;-75
2024/04/19 13:52:51;;;;;;;;;;;;;;;;;;5622688;25;19926;-75
2024/04/19 13:56:13;;;;;;;;;;;;;;;;;;5621384;25;19937;-74
2024/04/19 13:58:39;;;;;;;;;;;;;;;;;;5622251;25;19926;-75
2024/04/19 14:01:05;;;;;;;;;;;;;;;;;;5622145;25;19997;-74
2024/04/19 14:03:31;;;;;;;;;;;;;;;;;;5587598;25;19930;-74
2024/04/19 14:05:57;;;;;;;;;;;;;;;;;;5622088;25;20322;-74
2024/04/19 14:08:23;;;;;;;;;;;;;;;;;;5621986;25;19930;-75
2024/04/19 14:10:49;;;;;;;;;;;;;;;;;;5588040;25;19934;-74
2024/04/19 14:13:15;;;;;;;;;;;;;;;;;;5622039;25;19934;-75
2024/04/19 14:15:41;;;;;;;;;;;;;;;;;;5622068;25;19993;-75
2024/04/19 14:18:07;;;;;;;;;;;;;;;;;;5587932;25;19927;-74
2024/04/19 14:20:33;;;;;;;;;;;;;;;;;;5622100;25;19933;-74
2024/04/19 14:23:34;;;;;;;;;;;;;;;;;;5622153;25;20386;-74
2024/04/19 14:26:00;;;;;;;;;;;;;;;;;;5621920;25;19934;-75
2024/04/19 14:29:53;;;;;;;;;;;;;;;;;;5621932;25;20235;-74
2024/04/19 14:32:19;;;;;;;;;;;;;;;;;;5621796;25;20375;-73
2024/04/19 14:34:45;;;;;;;;;;;;;;;;;;5588626;25;19933;-73
2024/04/19 14:37:11;;;;;;;;;;;;;;;;;;5622352;25;19970;-74
2024/04/19 14:39:37;;;;;;;;;;;;;;;;;;5588189;25;19926;-74
2024/04/19 14:43:13;;;;;;;;;;;;;;;;;;5613662;25;19927;-74
2024/04/19 14:48:37;;;;;;;;;;;;;;;;;;5622201;25;20374;-75
2024/04/19 14:51:03;;;;;;;;;;;;;;;;;;5588518;25;19927;-72
2024/04/19 14:53:29;;;;;;;;;;;;;;;;;;5621945;25;19933;-74
2024/04/19 14:58:43;;;;;;;;;;;;;;;;;;5622105;25;19926;-74
2024/04/19 15:01:09;;;;;;;;;;;;;;;;;;5621952;25;20264;-75
2024/04/19 15:04:08;;;;;;;;;;;;;;;;;;5622215;25;19933;-74
2024/04/19 15:06:34;;;;;;;;;;;;;;;;;;5588265;25;19927;-73
2024/04/19 15:09:00;;;;;;;;;;;;;;;;;;5622261;25;19973;-73
2024/04/19 15:11:26;;;;;;;;;;;;;;;;;;5622280;25;19938;-74
2024/04/19 15:13:52;;;;;;;;;;;;;;;;;;5621695;25;19933;-73
2024/04/19 15:18:10;;;;;;;;;;;;;;;;;;5472520;26;19940;-74
2024/04/19 15:22:45;;;;;;;;;;;;;;;;;;5546083;25;19927;-73
2024/04/19 15:25:11;;;;;;;;;;;;;;;;;;5544706;25;19927;-74
2024/04/19 15:28:43;;;;;;;;;;;;;;;;;;5508966;25;19935;-74
2024/04/19 15:31:09;;;;;;;;;;;;;;;;;;5509465;26;19960;-74
2024/04/19 15:35:10;;;;;;;;;;;;;;;;;;5621708;25;19926;-74
2024/04/19 15:38:54;;;;;;;;;;;;;;;;;;5546661;25;19928;-74
2024/04/19 15:41:22;;;;;;;;;;;;;;;;;;5546173;25;19927;-74
2024/04/19 15:43:48;;;;;;;;;;;;;;;;;;5544558;25;19927;-74
2024/04/19 15:46:14;;;;;;;;;;;;;;;;;;5546567;25;19940;-74
2024/04/19 15:48:40;;;;;;;;;;;;;;;;;;5546126;25;20419;-74
2024/04/19 15:51:49;;;;;;;;;;;;;;;;;;5621892;25;20017;-74
2024/04/19 15:54:14;;;;;;;;;;;;;;;;;;5621689;25;19934;-75
2024/04/19 15:56:40;;;;;;;;;;;;;;;;;;5621884;25;20430;-74
2024/04/19 15:59:06;;;;;;;;;;;;;;;;;;5621891;25;19955;-74
2024/04/19 16:01:38;;;;;;;;;;;;;;;;;;5621847;25;19934;-73
2024/04/19 16:04:04;;;;;;;;;;;;;;;;;;5621585;25;19994;-73
2024/04/19 16:06:30;;;;;;;;;;;;;;;;;;5622051;25;20000;-74
2024/04/19 16:08:58;;;;;;;;;;;;;;;;;;5621490;25;19934;-74
2024/04/19 16:11:25;;;;;;;;;;;;;;;;;;5621357;25;19933;-74
2024/04/19 16:13:51;;;;;;;;;;;;;;;;;;5621891;25;19926;-75
2024/04/19 16:16:18;;;;;;;;;;;;;;;;;;5622145;25;20322;-75
2024/04/19 16:18:44;;;;;;;;;;;;;;;;;;5621698;25;20284;-75
2024/04/19 16:21:10;;;;;;;;;;;;;;;;;;5621690;25;19927;-74
2024/04/19 16:23:36;;;;;;;;;;;;;;;;;;5621453;25;20315;-74
2024/04/19 16:26:02;;;;;;;;;;;;;;;;;;5621904;25;20275;-74
2024/04/19 16:28:31;;;;;;;;;;;;;;;;;;5588173;25;19946;-74
2024/04/19 16:30:57;;;;;;;;;;;;;;;;;;5621192;25;20259;-74
2024/04/19 16:33:23;;;;;;;;;;;;;;;;;;5621778;25;20267;-74
2024/04/19 16:35:49;;;;;;;;;;;;;;;;;;5588219;25;19932;-74
2024/04/19 16:38:16;;;;;;;;;;;;;;;;;;5622000;25;20371;-75
2024/04/19 16:40:43;;;;;;;;;;;;;;;;;;5621910;25;20263;-74
2024/04/19 16:43:09;;;;;;;;;;;;;;;;;;5622511;25;20442;-75
2024/04/19 16:45:35;;;;;;;;;;;;;;;;;;5621756;25;19926;-75
2024/04/19 16:48:01;;;;;;;;;;;;;;;;;;5622054;25;19937;-75
2024/04/19 16:50:27;;;;;;;;;;;;;;;;;;5588361;25;19926;-75
2024/04/19 16:52:53;;;;;;;;;;;;;;;;;;5621896;25;19927;-76
2024/04/19 16:55:19;;;;;;;;;;;;;;;;;;5622574;25;19941;-75
2024/04/19 16:57:45;;;;;;;;;;;;;;;;;;5588450;25;19926;-75
2024/04/19 17:00:11;;;;;;;;;;;;;;;;;;5621528;25;19934;-75
2024/04/19 17:02:37;;;;;;;;;;;;;;;;;;5608957;25;19934;-75
2024/04/19 17:05:03;;;;;;;;;;;;;;;;;;5605431;25;20274;-75
2024/04/19 17:07:30;;;;;;;;;;;;;;;;;;5605252;25;19933;-74
2024/04/19 17:09:56;;;;;;;;;;;;;;;;;;5605276;25;19934;-76
2024/04/19 17:12:23;;;;;;;;;;;;;;;;;;5571970;25;20005;-76
2024/04/19 17:14:49;;;;;;;;;;;;;;;;;;5604657;25;19994;-76
2024/04/19 17:17:15;;;;;;;;;;;;;;;;;;5571743;25;20278;-75
2024/04/19 17:19:41;;;;;;;;;;;;;;;;;;5604962;25;19936;-75
2024/04/19 17:22:07;;;;;;;;;;;;;;;;;;5571192;25;20019;-74
2024/04/19 17:24:33;;;;;;;;;;;;;;;;;;5604772;25;19927;-74
2024/04/19 17:26:59;;;;;;;;;;;;;;;;;;5570944;25;19934;-74
2024/04/19 17:29:25;;;;;;;;;;;;;;;;;;5604662;25;19926;-74
2024/04/19 17:31:51;;;;;;;;;;;;;;;;;;5604991;25;19975;-74
2024/04/19 17:34:18;;;;;;;;;;;;;;;;;;5604434;25;20378;-75
2024/04/19 17:36:44;;;;;;;;;;;;;;;;;;5604934;25;19927;-76
2024/04/19 17:39:11;;;;;;;;;;;;;;;;;;5604869;25;19926;-76
2024/04/19 17:41:37;;;;;;;;;;;;;;;;;;5604316;25;19927;-75
2024/04/19 17:44:03;;;;;;;;;;;;;;;;;;5571157;25;19933;-76
2024/04/19 17:46:31;;;;;;;;;;;;;;;;;;5604853;25;19926;-75